Aérodrome :
LOGIN :

S'inscrire | Disclaimer

   EN    FR    IT 

 










Légende :    VFR   VFR Marginal   IFR   IFR Intensif   IFR Très Intensif
Visi : 
Plafond : 
>= 8 km
>= 3000ft
5 à 8 km
1000 à 3000 ft
1500m à 5 km
500 à 1000 ft
800 à 1500m
200 à 500 ft
< 800m
< 200 ft
Symboles :   Orages  Brouillard  Fortes neiges  Fortes précipitations  Vent > 20 kt
SIGMETs :   Divers  Orages  Givrage  Turbulence  Onde Orograph.  Cendres Volcan.






- Altitude de l'aérodrome : 1906 ft
- Code IATA : INN


LOWI - Innsbruck

DERNIER METAR :
  • 202150Z AUTO VRB02KT 9999 NCD 18/16 Q1012

METARs EXPIRÉS :
  • 202120Z AUTO VRB02KT 9999 NCD 18/16 Q1013
  • 202050Z AUTO VRB02KT 9999 NCD 18/16 Q1013 NOSIG
  • 202020Z AUTO VRB01KT 9999 NCD 19/16 Q1012 NOSIG
  • 201950Z AUTO VRB01KT 9999 NCD 19/17 Q1012 NOSIG
  • 201920Z VRB01KT 9999 NSC 20/17 Q1012 NOSIG
  • 201850Z AUTO VRB01KT 9999 NCD 21/17 Q1012 NOSIG
  • 201820Z AUTO VRB02KT 9999 NCD 22/17 Q1012 NOSIG
  • 201750Z AUTO VRB01KT 9999 NCD 24/18 Q1012 NOSIG

TAF TAF LOWI
Valide du 20 à 18h jusqu'au 21 à 18h UTC


201715Z 2018/2118 VRB04KT CAVOK TX29/2113Z TN15/2104Z
TEMPO 2112/2117 27012KT SHRA
PROB40
TEMPO 2112/2115 27015G35KT TSRA FEW040CB BKN050



MET'MAP, la Météo Aéronautique d'un coup d'oeil ! - Copyright ORBIFLY Décembre 2007 - Disclaimer

ORBIFLY MET'MAP TEAM :

Programmation & Développement : Alexandra Zaïnal
Sur une idée originale de : Baudouin d'Aumeries
Soutien technique & logistique : Manuel Goepfert
Assistance : Marc-Olivier Méhu




SOURCES & CREDITS :

   NOAA